Wrafton, United Kingdom

3:07 AM GMT on January 24, 2017 (GMT +0000)
Exeter Road | | Change Station

Elev 45 ft 51.11 °N, 4.16 °W | Updated 2 minutes ago

Partly Cloudy
Partly Cloudy
39.0 °F
Feels Like 39 °F
N
1.2
Wind Variable Wind from East
Gusts 4.3 mph

Today
High -- | Low -- °F
--% Chance of Precip.
Yesterday
High -- | Low -- °F
Precip. -- in
Pressure 30.30 in
Visibility 0.0 miles
Clouds
Windchill 39 °F
Dew Point 36 °F
Humidity 87%
Rainfall 0.00 in
Snow Depth Not available.
8:04 AM 4:53 PM
Waning Crescent, 14% visible
METAR EGFF 240250Z AUTO 11006KT 0050 R12/0250 FG VV/// 03/03 Q1026
Pressure 30.30 in
Visibility 0.0 miles
Clouds
Windchill 39 °F
Dew Point 36 °F
Humidity 87%
Rainfall 0.00 in
Snow Depth Not available.
8:04 AM 4:53 PM
Waning Crescent, 14% visible
METAR EGFF 240250Z AUTO 11006KT 0050 R12/0250 FG VV/// 03/03 Q1026

Get Your Daily Forecast Email!

Thanks for signing up!

Be on the lookout for a verification email in your inbox.

You'll start receiving the daily forecast at 8 AM.

×

10-Day Weather Forecast

×

Almanac

Astronomy

Jan. 24, 2017 Rise Set
Actual Time
Civil Twilight
Nautical Twilight
Astronomical Twilight
Moon
Length of Visible Light
Length of Day
Tomorrow will be .
, % of the Moon is Illuminated

Today's Extremes

Country Highs Country Lows

Community

WunderPhotos

Upload Photos

1,962,540 photos uploaded!

WunderBlog® & News

Nearby

Air Quality

  Air Quality AQ Index Pollutant
Not available.

Snow Depth

Station Depth Elevation

Earthquake Activity

City Distance Mag. Time & Date
Minimum magnitude displayed is 2.5.

Coastal Water Temperatures

Place Temperature

Stations

Nearby Weather Stations

Station Location Temp. Windchill Dew Point Humidity Wind Precip. Elev Updated Type